Terminal Aerodrome Forecast
Issued by NWS

Home | Current Version | Previous Version | Text Only | Print | Product List | Glossary On
Versions: 1 2 3 4 5 6 7 8 9 10 11 12 13 14 15 16 17
000
FTUS46 KSEW 161732
TAFOLM
TAF
KOLM 161732Z 1618/1718 22004KT P6SM FEW250
     FM162000 20007KT P6SM SCT250
     FM170000 21008KT P6SM FEW030 BKN120 OVC150
     FM171000 21012G20KT P6SM BKN030 OVC060
     FM171400 20012G20KT P6SM -RA OVC025=

USA.gov is the U.S. government's official web portal to all federal, state and local government web resources and services.